Time;durP1;ratioP1;P1;durP2;ratioP2;P2;SDS_P1;SDS_P2;PMS_P1;PMS_P2;Temp;Humidity;BMP_temperature;BMP_pressure;BME280_temperature;BME280_humidity;BME280_pressure;Samples;Min_cycle;Max_cycle;Signal;HPM_P1;HPM_P2
2021/07/17 00:00:34;;;;;;;27.30;10.32;;;17.20;99.90;;;;;;5055020;28;20627;-83
2021/07/17 00:03:02;;;;;;;20.17;9.20;;;17.20;99.90;;;;;;5053875;28;20171;-84
2021/07/17 00:05:28;;;;;;;23.58;8.75;;;17.10;99.90;;;;;;5053423;28;20284;-82
2021/07/17 00:07:53;;;;;;;20.92;9.15;;;17.10;99.90;;;;;;5053644;28;20274;-83
2021/07/17 00:10:22;;;;;;;20.02;9.27;;;17.10;99.90;;;;;;5053613;28;20167;-83
2021/07/17 00:12:48;;;;;;;23.13;10.05;;;17.10;99.90;;;;;;5053368;28;20294;-83
2021/07/17 00:15:15;;;;;;;23.10;8.00;;;17.00;99.90;;;;;;5053227;28;20179;-82
2021/07/17 00:17:45;;;;;;;31.02;9.63;;;17.10;99.90;;;;;;5053606;28;20469;-84
2021/07/17 00:20:13;;;;;;;29.33;10.02;;;17.20;99.90;;;;;;5053492;28;20171;-82
2021/07/17 00:22:39;;;;;;;19.27;9.43;;;17.20;99.90;;;;;;5054806;28;20237;-83
2021/07/17 00:25:07;;;;;;;18.40;9.35;;;17.20;99.90;;;;;;5053073;28;20667;-83
2021/07/17 00:27:33;;;;;;;13.75;8.18;;;16.90;99.90;;;;;;5053230;28;20199;-82
2021/07/17 00:29:58;;;;;;;14.77;9.18;;;16.70;99.90;;;;;;5052803;28;20201;-82
2021/07/17 00:32:24;;;;;;;20.52;8.27;;;16.60;99.90;;;;;;5054176;28;20206;-83
2021/07/17 00:34:50;;;;;;;14.32;7.68;;;16.70;99.90;;;;;;5053128;28;20219;-83
2021/07/17 00:37:15;;;;;;;22.55;9.13;;;16.80;99.90;;;;;;5052855;28;20642;-83
2021/07/17 00:39:41;;;;;;;21.98;9.77;;;16.90;99.90;;;;;;5052937;28;20225;-82
2021/07/17 00:42:06;;;;;;;20.60;8.75;;;16.90;99.90;;;;;;5054582;28;20643;-82
2021/07/17 00:44:33;;;;;;;30.10;9.93;;;16.80;99.90;;;;;;5054340;28;20183;-83
2021/07/17 00:46:59;;;;;;;20.15;10.88;;;16.70;99.90;;;;;;5052844;28;20297;-83
2021/07/17 00:49:27;;;;;;;17.25;7.90;;;16.60;99.90;;;;;;5053117;28;20164;-86
2021/07/17 00:51:53;;;;;;;22.00;9.60;;;16.50;99.90;;;;;;5054224;28;20218;-82
2021/07/17 00:54:20;;;;;;;20.98;9.20;;;16.60;99.90;;;;;;5052019;28;20187;-83
2021/07/17 00:56:48;;;;;;;28.08;10.23;;;16.50;99.90;;;;;;5052838;28;20196;-85
2021/07/17 00:59:17;;;;;;;26.73;10.00;;;16.50;99.90;;;;;;5053839;28;20228;-85
2021/07/17 01:01:43;;;;;;;15.30;9.35;;;16.50;99.90;;;;;;5052638;28;20178;-82
2021/07/17 01:04:09;;;;;;;25.50;9.77;;;16.60;99.90;;;;;;5054007;28;20685;-86
2021/07/17 01:06:35;;;;;;;17.67;8.88;;;16.50;99.90;;;;;;5054239;28;20163;-84
2021/07/17 01:09:01;;;;;;;22.75;8.82;;;16.50;99.90;;;;;;5052528;28;20176;-82
2021/07/17 01:11:27;;;;;;;18.00;8.52;;;16.60;99.90;;;;;;5053423;28;20214;-83
2021/07/17 01:13:52;;;;;;;18.80;8.90;;;16.30;99.90;;;;;;5053673;28;20167;-83
2021/07/17 01:16:18;;;;;;;18.13;8.27;;;16.40;99.90;;;;;;5052631;28;20504;-83
2021/07/17 01:18:44;;;;;;;25.00;9.30;;;16.30;99.90;;;;;;5052412;28;20190;-83
2021/07/17 01:21:18;;;;;;;15.02;7.82;;;16.20;99.90;;;;;;5052389;28;20171;-83
2021/07/17 01:23:45;;;;;;;29.98;9.38;;;16.20;99.90;;;;;;5051784;28;20170;-83
2021/07/17 01:26:12;;;;;;;21.80;10.15;;;16.40;99.90;;;;;;5053422;28;20171;-83
2021/07/17 01:28:39;;;;;;;27.92;10.32;;;16.50;99.90;;;;;;5052287;28;20181;-83
2021/07/17 01:31:05;;;;;;;21.50;9.82;;;16.40;99.90;;;;;;5052084;28;20557;-83
2021/07/17 01:33:30;;;;;;;20.60;9.63;;;16.50;99.90;;;;;;5052139;28;20539;-82
2021/07/17 01:35:56;;;;;;;18.67;10.02;;;16.40;99.90;;;;;;5052289;28;20270;-82
2021/07/17 01:38:22;;;;;;;21.00;9.95;;;16.50;99.90;;;;;;5051615;28;20178;-82
2021/07/17 01:40:50;;;;;;;23.25;10.20;;;16.60;99.90;;;;;;5052092;28;20170;-84
2021/07/17 01:43:16;;;;;;;21.10;9.77;;;16.50;99.90;;;;;;5053424;28;20179;-83
2021/07/17 01:45:45;;;;;;;28.45;10.30;;;16.50;99.90;;;;;;5052869;28;20183;-83
2021/07/17 01:48:13;;;;;;;18.35;9.30;;;16.50;99.90;;;;;;5052165;28;20542;-82
2021/07/17 01:50:40;;;;;;;30.60;9.90;;;16.40;99.90;;;;;;5053026;28;20167;-84
2021/07/17 01:53:07;;;;;;;19.45;10.48;;;16.60;99.90;;;;;;5051784;28;20298;-83
2021/07/17 01:55:33;;;;;;;12.40;8.82;;;16.70;99.90;;;;;;5052628;28;20187;-83
2021/07/17 01:57:59;;;;;;;22.42;10.75;;;16.70;99.90;;;;;;5052579;28;20167;-82
2021/07/17 02:00:25;;;;;;;26.23;10.20;;;16.50;99.90;;;;;;5051181;28;20253;-82
2021/07/17 02:02:52;;;;;;;15.93;9.93;;;16.70;99.90;;;;;;5051518;28;20172;-83
2021/07/17 02:05:19;;;;;;;18.50;9.38;;;16.70;99.90;;;;;;5051334;28;20682;-83
2021/07/17 02:07:45;;;;;;;18.55;10.20;;;16.70;99.90;;;;;;5051575;28;20272;-82
2021/07/17 02:10:20;;;;;;;32.33;11.18;;;16.60;99.90;;;;;;5052645;28;20558;-83
2021/07/17 02:13:15;;;;;;;23.83;10.07;;;16.60;99.90;;;;;;5051514;28;20217;-83
2021/07/17 02:15:45;;;;;;;22.20;10.25;;;16.60;99.90;;;;;;5047062;28;20601;-83
2021/07/17 02:18:13;;;;;;;20.70;10.30;;;16.70;99.90;;;;;;5051483;28;20174;-82
2021/07/17 02:20:39;;;;;;;25.42;10.52;;;16.60;99.90;;;;;;5052645;28;20206;-83
2021/07/17 02:23:05;;;;;;;24.20;10.68;;;16.90;99.90;;;;;;5051243;28;20167;-83
2021/07/17 02:25:32;;;;;;;27.60;10.63;;;17.00;99.90;;;;;;5051265;28;20269;-82
2021/07/17 02:27:58;;;;;;;34.60;11.73;;;17.00;99.90;;;;;;5051554;28;20266;-83
2021/07/17 02:30:23;;;;;;;25.88;10.95;;;17.20;99.90;;;;;;5051231;28;20259;-83
2021/07/17 02:32:49;;;;;;;21.85;10.13;;;17.30;99.90;;;;;;5051051;28;20697;-83
2021/07/17 02:35:14;;;;;;;19.17;10.77;;;17.20;99.90;;;;;;5052481;28;20184;-86
2021/07/17 02:37:40;;;;;;;30.88;11.68;;;17.30;99.90;;;;;;5051067;28;20175;-83
2021/07/17 02:40:07;;;;;;;27.52;10.77;;;17.20;99.90;;;;;;5052482;28;20167;-82
2021/07/17 02:42:34;;;;;;;24.95;10.32;;;17.30;99.90;;;;;;5051597;28;20635;-83
2021/07/17 02:45:00;;;;;;;27.42;10.60;;;17.10;99.90;;;;;;5051317;28;20278;-82
2021/07/17 02:47:26;;;;;;;22.73;9.55;;;17.20;99.90;;;;;;5051136;28;20171;-83
2021/07/17 02:49:52;;;;;;;28.02;10.50;;;17.40;99.90;;;;;;5050907;28;20220;-83
2021/07/17 02:52:17;;;;;;;20.52;10.52;;;17.20;99.90;;;;;;5051327;28;20590;-83
2021/07/17 02:54:43;;;;;;;24.35;9.85;;;17.20;99.90;;;;;;5050736;28;20684;-83
2021/07/17 02:57:09;;;;;;;25.10;11.35;;;17.40;99.90;;;;;;5051200;28;20171;-82
2021/07/17 02:59:34;;;;;;;33.78;10.82;;;17.50;99.90;;;;;;5052515;28;20159;-83
2021/07/17 03:02:00;;;;;;;24.83;10.48;;;17.60;99.90;;;;;;5050986;28;20531;-82
2021/07/17 03:04:26;;;;;;;22.05;9.70;;;17.60;99.90;;;;;;5050684;28;20183;-83
2021/07/17 03:06:51;;;;;;;24.00;10.27;;;17.70;99.90;;;;;;5069017;28;20239;-82
2021/07/17 03:09:17;;;;;;;22.35;10.00;;;17.80;99.90;;;;;;5072051;28;20685;-82
2021/07/17 03:11:43;;;;;;;30.15;10.85;;;17.80;99.90;;;;;;5070787;28;20210;-82
2021/07/17 03:14:08;;;;;;;20.95;10.82;;;17.90;99.90;;;;;;5070626;28;20209;-84
2021/07/17 03:16:34;;;;;;;24.08;10.70;;;17.80;99.90;;;;;;5071959;28;20497;-82
2021/07/17 03:19:00;;;;;;;20.00;10.73;;;17.80;99.90;;;;;;5073473;28;20166;-83
2021/07/17 03:21:26;;;;;;;22.05;10.40;;;17.90;99.90;;;;;;5075912;28;20159;-83
2021/07/17 03:23:52;;;;;;;28.77;11.18;;;17.80;99.90;;;;;;5074419;28;20638;-84
2021/07/17 03:26:18;;;;;;;33.65;11.50;;;17.60;99.90;;;;;;5074502;28;20170;-82
2021/07/17 03:28:44;;;;;;;27.77;10.52;;;17.70;99.90;;;;;;5057672;28;20182;-85
2021/07/17 03:31:09;;;;;;;33.03;12.35;;;17.80;99.90;;;;;;5075741;28;20202;-82
2021/07/17 03:33:36;;;;;;;26.35;12.02;;;17.80;99.90;;;;;;5075040;28;20510;-83
2021/07/17 03:36:02;;;;;;;22.92;11.15;;;17.80;99.90;;;;;;5074317;28;20811;-83
2021/07/17 03:38:28;;;;;;;28.48;11.43;;;17.90;99.90;;;;;;5074400;28;20175;-82
2021/07/17 03:40:53;;;;;;;27.48;12.18;;;17.80;99.90;;;;;;5075285;28;20173;-83
2021/07/17 03:43:19;;;;;;;23.52;11.45;;;17.90;99.90;;;;;;5074201;28;20169;-82
2021/07/17 03:45:45;;;;;;;15.15;10.43;;;17.80;99.90;;;;;;5075023;28;20187;-82
2021/07/17 03:48:11;;;;;;;21.45;11.27;;;17.70;99.90;;;;;;5073518;28;20175;-82
2021/07/17 03:50:37;;;;;;;26.95;10.77;;;17.70;99.90;;;;;;5074243;28;20231;-83
2021/07/17 03:53:04;;;;;;;24.52;11.02;;;17.70;99.90;;;;;;5074270;28;20208;-82
2021/07/17 03:55:31;;;;;;;27.77;10.95;;;17.70;99.90;;;;;;5072742;28;20232;-83
2021/07/17 03:57:56;;;;;;;22.20;9.57;;;17.60;99.90;;;;;;5055344;28;20171;-83
2021/07/17 04:00:22;;;;;;;20.00;9.77;;;17.30;99.90;;;;;;5053936;28;20240;-82
2021/07/17 04:02:48;;;;;;;35.38;11.15;;;17.20;99.90;;;;;;5053611;28;20258;-83
2021/07/17 04:05:16;;;;;;;23.20;11.07;;;17.40;99.90;;;;;;5053773;28;20194;-82
2021/07/17 04:07:42;;;;;;;41.75;11.45;;;17.40;99.90;;;;;;5053683;28;20163;-82
2021/07/17 04:10:10;;;;;;;30.75;11.52;;;17.40;99.90;;;;;;5055054;28;20167;-83
2021/07/17 04:12:36;;;;;;;28.85;11.25;;;17.60;99.90;;;;;;5053731;28;20203;-83
2021/07/17 04:15:03;;;;;;;16.60;10.15;;;17.40;99.90;;;;;;5053585;28;20191;-83
2021/07/17 04:17:29;;;;;;;30.92;11.15;;;17.50;99.90;;;;;;5054992;28;20168;-82
2021/07/17 04:19:55;;;;;;;25.13;10.90;;;17.60;99.90;;;;;;5054589;28;20186;-82
2021/07/17 04:22:21;;;;;;;27.13;11.32;;;17.60;99.90;;;;;;5053631;28;20264;-83
2021/07/17 04:24:47;;;;;;;18.20;9.50;;;17.70;99.90;;;;;;5059069;28;20403;-83
2021/07/17 04:27:12;;;;;;;15.18;10.07;;;17.70;99.90;;;;;;5056832;28;20168;-83
2021/07/17 04:29:39;;;;;;;24.58;10.65;;;17.70;99.90;;;;;;5054679;28;20178;-82
2021/07/17 04:32:05;;;;;;;21.05;9.50;;;17.70;99.90;;;;;;5055117;28;20215;-83
2021/07/17 04:34:30;;;;;;;24.20;9.88;;;17.80;99.90;;;;;;5063941;28;20183;-86
2021/07/17 04:36:56;;;;;;;17.88;10.35;;;17.80;99.90;;;;;;5071393;28;20178;-83
2021/07/17 04:39:23;;;;;;;18.13;10.00;;;17.70;99.90;;;;;;5073181;28;20170;-82
2021/07/17 04:41:48;;;;;;;17.60;8.80;;;17.80;99.90;;;;;;5073529;28;20187;-83
2021/07/17 04:44:14;;;;;;;27.08;9.52;;;17.80;99.90;;;;;;5073315;28;20233;-83
2021/07/17 04:46:39;;;;;;;38.50;10.68;;;17.80;99.90;;;;;;5053331;28;20193;-82
2021/07/17 04:49:05;;;;;;;24.08;9.38;;;17.90;99.90;;;;;;5053190;28;20266;-82
2021/07/17 04:51:31;;;;;;;17.67;9.50;;;17.90;99.90;;;;;;5052887;28;20198;-83
2021/07/17 04:53:56;;;;;;;23.83;9.02;;;17.80;99.90;;;;;;5052947;28;20178;-83
2021/07/17 04:56:22;;;;;;;21.17;10.23;;;17.70;99.90;;;;;;5053950;28;20163;-82
2021/07/17 04:58:47;;;;;;;20.77;9.88;;;17.70;99.90;;;;;;5054434;28;20179;-83
2021/07/17 05:01:13;;;;;;;21.70;9.63;;;17.70;99.90;;;;;;5054000;28;20276;-82
2021/07/17 05:03:39;;;;;;;24.30;11.35;;;17.60;99.90;;;;;;5052799;28;20163;-82
2021/07/17 05:06:05;;;;;;;32.90;10.25;;;17.80;99.90;;;;;;5053930;28;20217;-82
2021/07/17 05:08:31;;;;;;;30.40;10.45;;;17.60;99.90;;;;;;5054023;28;20171;-82
2021/07/17 05:10:57;;;;;;;17.13;10.98;;;17.60;99.90;;;;;;5054266;28;20178;-83
2021/07/17 05:13:24;;;;;;;18.73;10.45;;;17.80;99.90;;;;;;5054885;28;20163;-83
2021/07/17 05:15:50;;;;;;;29.60;10.15;;;17.80;99.90;;;;;;5053507;28;20190;-83
2021/07/17 05:18:16;;;;;;;25.98;10.70;;;17.80;99.90;;;;;;5054471;28;20631;-82
2021/07/17 05:20:42;;;;;;;22.58;10.70;;;17.90;99.90;;;;;;5054415;28;20171;-83
2021/07/17 05:23:09;;;;;;;37.20;10.93;;;17.70;99.90;;;;;;5053531;28;20167;-83
2021/07/17 05:25:35;;;;;;;21.10;10.55;;;17.80;99.90;;;;;;5069488;28;20208;-83
2021/07/17 05:28:01;;;;;;;21.52;9.98;;;17.60;99.90;;;;;;5069787;28;20209;-83
2021/07/17 05:30:26;;;;;;;20.13;10.05;;;17.60;99.90;;;;;;5072809;28;20194;-83
2021/07/17 05:32:52;;;;;;;17.85;8.98;;;17.70;99.90;;;;;;5073743;28;20252;-84
2021/07/17 05:35:18;;;;;;;26.85;9.75;;;17.80;99.90;;;;;;5073076;28;20186;-83
2021/07/17 05:37:43;;;;;;;29.60;9.43;;;17.90;99.90;;;;;;5073341;28;20319;-83
2021/07/17 05:40:10;;;;;;;24.33;9.35;;;17.90;99.90;;;;;;5072536;28;20219;-83
2021/07/17 05:42:36;;;;;;;22.35;9.80;;;18.00;99.90;;;;;;5072347;28;20162;-83
2021/07/17 05:45:01;;;;;;;19.00;10.05;;;18.00;99.90;;;;;;5073080;28;20303;-84
2021/07/17 05:47:28;;;;;;;34.22;9.27;;;18.10;99.90;;;;;;5073702;28;20522;-83
2021/07/17 05:49:53;;;;;;;25.73;9.50;;;18.20;99.90;;;;;;5073159;28;20174;-82
2021/07/17 05:52:19;;;;;;;30.00;9.57;;;18.20;99.90;;;;;;5072991;28;20217;-81
2021/07/17 05:54:45;;;;;;;28.00;8.88;;;18.40;99.90;;;;;;5072429;28;20202;-82
2021/07/17 05:57:10;;;;;;;25.17;8.70;;;18.50;99.90;;;;;;5073933;28;20171;-83
2021/07/17 05:59:36;;;;;;;24.92;9.15;;;18.10;99.90;;;;;;5068669;28;20221;-83
2021/07/17 06:02:04;;;;;;;15.80;9.38;;;18.20;99.90;;;;;;5067613;28;20171;-84
2021/07/17 06:04:30;;;;;;;16.05;8.43;;;18.30;99.90;;;;;;5072268;28;20235;-83
2021/07/17 06:06:56;;;;;;;19.25;9.50;;;18.60;99.90;;;;;;5069592;28;20539;-83
2021/07/17 06:09:21;;;;;;;19.83;8.40;;;18.70;99.90;;;;;;5053931;28;20202;-83
2021/07/17 06:11:47;;;;;;;21.70;9.63;;;19.00;99.90;;;;;;5051731;28;20225;-84
2021/07/17 06:14:13;;;;;;;19.98;8.43;;;18.90;99.90;;;;;;5071031;28;20182;-84
2021/07/17 06:16:38;;;;;;;29.35;8.02;;;19.10;99.90;;;;;;5054517;28;20181;-85
2021/07/17 06:19:04;;;;;;;18.17;7.25;;;19.10;99.90;;;;;;5064777;28;20166;-85
2021/07/17 06:21:30;;;;;;;21.90;8.13;;;19.30;99.90;;;;;;5068138;28;20179;-84
2021/07/17 06:23:57;;;;;;;16.77;8.30;;;19.10;99.90;;;;;;5051001;28;20184;-83
2021/07/17 06:26:23;;;;;;;18.27;7.93;;;19.00;99.90;;;;;;5050486;28;20212;-83
2021/07/17 06:28:48;;;;;;;16.65;7.90;;;19.10;99.90;;;;;;5050649;28;20213;-82
2021/07/17 06:31:15;;;;;;;27.95;8.88;;;19.40;99.90;;;;;;5063127;28;20193;-82
2021/07/17 06:33:40;;;;;;;16.10;8.13;;;19.30;99.90;;;;;;5059113;28;20171;-84
2021/07/17 06:36:08;;;;;;;20.60;7.80;;;19.50;99.90;;;;;;5033781;28;20167;-85
2021/07/17 06:38:33;;;;;;;19.25;7.32;;;19.70;99.90;;;;;;5058747;28;20544;-83
2021/07/17 06:40:59;;;;;;;19.88;7.53;;;19.80;99.90;;;;;;5057070;28;20175;-84
2021/07/17 06:43:24;;;;;;;13.77;7.55;;;19.70;99.90;;;;;;5050980;28;20190;-83
2021/07/17 06:45:50;;;;;;;20.48;7.90;;;19.80;99.90;;;;;;5051357;28;20639;-84
2021/07/17 06:48:16;;;;;;;20.10;8.55;;;20.00;99.90;;;;;;5056707;28;20213;-85
2021/07/17 06:50:43;;;;;;;23.10;7.53;;;20.00;99.90;;;;;;5058885;28;20159;-82
2021/07/17 06:53:08;;;;;;;14.45;7.43;;;20.10;99.90;;;;;;5050904;28;20276;-82
2021/07/17 06:55:34;;;;;;;11.43;6.38;;;20.30;99.90;;;;;;5056073;28;20647;-83
2021/07/17 06:58:00;;;;;;;16.45;7.85;;;20.20;99.90;;;;;;5052933;28;20175;-83
2021/07/17 07:00:30;;;;;;;19.55;6.90;;;20.10;99.90;;;;;;5055898;28;20179;-90
2021/07/17 07:02:55;;;;;;;14.45;6.57;;;20.30;99.90;;;;;;5053527;28;20164;-84
2021/07/17 07:05:21;;;;;;;17.02;7.80;;;20.20;99.90;;;;;;5055740;28;20472;-83
2021/07/17 07:07:47;;;;;;;18.25;6.72;;;20.10;99.90;;;;;;5055660;28;20210;-88
2021/07/17 07:10:25;;;;;;;17.70;6.93;;;20.30;99.90;;;;;;5055897;28;20182;-84
2021/07/17 07:12:51;;;;;;;20.73;7.53;;;20.40;99.90;;;;;;5054798;28;20242;-84
2021/07/17 07:15:16;;;;;;;18.95;6.82;;;20.50;99.90;;;;;;5055097;28;20230;-84
2021/07/17 07:17:43;;;;;;;16.98;6.30;;;20.40;99.90;;;;;;5056065;28;20171;-83
2021/07/17 07:20:10;;;;;;;12.25;5.82;;;20.70;99.90;;;;;;5055600;28;20258;-83
2021/07/17 07:22:37;;;;;;;18.08;6.57;;;20.70;99.90;;;;;;5054519;28;20175;-84
2021/07/17 07:25:07;;;;;;;12.13;6.80;;;20.80;99.90;;;;;;5055274;28;20191;-83
2021/07/17 07:27:34;;;;;;;11.90;5.75;;;20.70;99.90;;;;;;5054228;28;20171;-81
2021/07/17 07:29:59;;;;;;;8.80;5.88;;;20.80;99.90;;;;;;5054408;28;20250;-80
2021/07/17 07:32:25;;;;;;;11.50;5.53;;;21.30;99.90;;;;;;5053860;28;20686;-80
2021/07/17 07:34:51;;;;;;;11.38;5.22;;;22.10;99.90;;;;;;5055169;28;20189;-81
2021/07/17 07:37:17;;;;;;;13.13;5.50;;;23.40;99.90;;;;;;5055260;28;20240;-82
2021/07/17 07:39:42;;;;;;;12.50;5.50;;;24.30;99.90;;;;;;5055659;28;20159;-82
2021/07/17 07:42:08;;;;;;;18.10;5.53;;;23.80;99.90;;;;;;5055623;28;20735;-82
2021/07/17 07:44:34;;;;;;;11.98;5.18;;;23.50;99.90;;;;;;5055394;28;20187;-81
2021/07/17 07:47:00;;;;;;;15.60;4.68;;;22.70;99.90;;;;;;5055517;28;20703;-82
2021/07/17 07:49:25;;;;;;;18.35;5.18;;;22.70;99.90;;;;;;5055623;28;20246;-81
2021/07/17 07:51:51;;;;;;;15.45;5.82;;;23.20;99.90;;;;;;5055510;28;20294;-81
2021/07/17 07:54:16;;;;;;;11.02;5.00;;;23.50;99.90;;;;;;5053832;28;20286;-81
2021/07/17 07:56:42;;;;;;;15.07;4.78;;;23.40;99.90;;;;;;5055325;28;20237;-83
2021/07/17 07:59:08;;;;;;;11.35;5.20;;;22.70;99.90;;;;;;5053791;28;20205;-83
2021/07/17 08:01:34;;;;;;;15.40;5.85;;;21.80;99.90;;;;;;5054945;28;20167;-83
2021/07/17 08:03:59;;;;;;;17.15;5.90;;;21.60;99.90;;;;;;5053494;28;20574;-83
2021/07/17 08:06:26;;;;;;;12.25;6.35;;;21.20;99.90;;;;;;5053803;28;20512;-83
2021/07/17 08:08:52;;;;;;;13.95;5.13;;;21.40;99.90;;;;;;5054976;28;20167;-82
2021/07/17 08:11:17;;;;;;;20.20;5.93;;;21.20;99.90;;;;;;5053389;28;20214;-82
2021/07/17 08:13:43;;;;;;;21.77;6.55;;;21.20;99.90;;;;;;5055122;28;20178;-83
2021/07/17 08:16:10;;;;;;;11.23;6.70;;;21.10;99.90;;;;;;5055285;28;20198;-82
2021/07/17 08:18:35;;;;;;;18.90;6.45;;;21.30;99.90;;;;;;5053779;28;20170;-81
2021/07/17 08:21:02;;;;;;;15.35;6.22;;;21.30;99.90;;;;;;5053909;28;20175;-82
2021/07/17 08:23:27;;;;;;;12.55;5.50;;;21.10;99.90;;;;;;5053738;28;20167;-83
2021/07/17 08:25:53;;;;;;;22.02;6.28;;;21.40;99.90;;;;;;5053992;28;20532;-82
2021/07/17 08:28:19;;;;;;;15.07;5.78;;;21.70;99.90;;;;;;5054017;28;20262;-82
2021/07/17 08:30:44;;;;;;;21.55;6.72;;;21.60;99.90;;;;;;5053661;28;20264;-82
2021/07/17 08:33:11;;;;;;;15.07;5.95;;;21.30;99.90;;;;;;5054599;28;20203;-83
2021/07/17 08:35:36;;;;;;;13.48;6.72;;;21.30;99.90;;;;;;5054292;28;20183;-82
2021/07/17 08:38:02;;;;;;;16.60;5.55;;;21.30;99.90;;;;;;5053168;28;20179;-82
2021/07/17 08:40:28;;;;;;;15.65;7.05;;;20.80;99.90;;;;;;5053171;28;20190;-82
2021/07/17 08:42:55;;;;;;;13.18;5.97;;;21.00;99.90;;;;;;5054565;28;20171;-81
2021/07/17 08:45:23;;;;;;;18.33;6.63;;;21.00;99.90;;;;;;5052967;28;20199;-81
2021/07/17 08:47:51;;;;;;;12.23;5.75;;;21.10;99.90;;;;;;5054247;28;20262;-82
2021/07/17 08:50:21;;;;;;;18.08;6.07;;;21.40;99.90;;;;;;5052389;28;20199;-82
2021/07/17 08:52:52;;;;;;;21.42;6.32;;;21.60;99.90;;;;;;5054276;28;20209;-81
2021/07/17 08:55:18;;;;;;;13.60;6.00;;;21.70;99.90;;;;;;5054243;28;20187;-82
2021/07/17 08:57:43;;;;;;;11.45;5.32;;;21.80;99.90;;;;;;5054385;28;20174;-82
2021/07/17 09:00:16;;;;;;;10.23;5.07;;;21.80;99.90;;;;;;5053474;28;20172;-82
2021/07/17 09:02:44;;;;;;;10.68;5.00;;;21.80;99.90;;;;;;5053733;28;20168;-82
2021/07/17 09:05:14;;;;;;;11.73;5.00;;;21.80;99.90;;;;;;5052438;28;20227;-82
2021/07/17 09:07:40;;;;;;;17.90;5.60;;;21.90;99.90;;;;;;5053990;28;20175;-82
2021/07/17 09:10:44;;;;;;;17.05;5.18;;;22.10;99.90;;;;;;5053842;28;20628;-82
2021/07/17 09:13:13;;;;;;;10.77;5.93;;;22.30;99.90;;;;;;5053347;28;20230;-82
2021/07/17 09:16:03;;;;;;;17.20;6.05;;;22.40;99.90;;;;;;5051656;28;20590;-82
2021/07/17 09:18:32;;;;;;;14.27;5.57;;;22.40;99.90;;;;;;5053676;28;20186;-82
2021/07/17 09:21:13;;;;;;;9.80;4.70;;;22.50;99.90;;;;;;5051795;28;20175;-82
2021/07/17 09:23:49;;;;;;;12.80;4.53;;;22.40;99.90;;;;;;5052099;28;20950;-82
2021/07/17 09:26:19;;;;;;;9.88;4.78;;;22.30;99.90;;;;;;5051372;28;20166;-82
2021/07/17 09:28:54;;;;;;;15.15;4.55;;;22.30;99.90;;;;;;5053690;28;20171;-82
2021/07/17 09:31:20;;;;;;;18.83;4.93;;;22.50;99.90;;;;;;5053134;28;20226;-82
2021/07/17 09:33:49;;;;;;;10.20;4.43;;;22.60;99.90;;;;;;5053243;28;20214;-82
2021/07/17 09:36:18;;;;;;;14.98;5.35;;;22.80;99.90;;;;;;5053179;28;20278;-82
2021/07/17 09:38:50;;;;;;;7.47;4.07;;;22.90;99.90;;;;;;5053394;28;20504;-81
2021/07/17 09:41:17;;;;;;;15.68;4.60;;;22.60;99.90;;;;;;5051624;28;20167;-80
2021/07/17 09:43:43;;;;;;;14.75;6.35;;;22.60;99.90;;;;;;5052986;28;20337;-80
2021/07/17 09:46:23;;;;;;;15.88;4.78;;;22.70;99.90;;;;;;5053361;28;20230;-82
2021/07/17 09:48:55;;;;;;;12.45;5.38;;;22.60;99.90;;;;;;5053583;28;20208;-83
2021/07/17 09:51:27;;;;;;;15.02;4.65;;;22.80;99.90;;;;;;5051615;28;20256;-82
2021/07/17 09:54:01;;;;;;;13.20;4.35;;;22.90;99.90;;;;;;5052089;28;20228;-83
2021/07/17 09:56:33;;;;;;;6.97;4.43;;;22.80;99.90;;;;;;5052022;28;20301;-82
2021/07/17 09:59:00;;;;;;;15.10;3.85;;;22.90;99.90;;;;;;5053155;28;20171;-82
2021/07/17 10:01:28;;;;;;;12.50;4.40;;;23.00;99.90;;;;;;5052774;28;20183;-83
2021/07/17 10:03:59;;;;;;;9.40;3.88;;;23.10;99.90;;;;;;5051492;28;20630;-82
2021/07/17 10:06:30;;;;;;;9.82;3.95;;;23.30;99.90;;;;;;5051271;28;20163;-84
2021/07/17 10:08:56;;;;;;;18.58;4.68;;;23.10;99.90;;;;;;5052717;28;20155;-83
2021/07/17 10:11:24;;;;;;;6.13;4.03;;;23.00;99.90;;;;;;5052362;28;20225;-82
2021/07/17 10:13:49;;;;;;;8.10;4.95;;;23.10;99.90;;;;;;5051562;28;20627;-82
2021/07/17 10:16:17;;;;;;;8.77;3.97;;;23.30;99.90;;;;;;5052742;28;20221;-82
2021/07/17 10:18:44;;;;;;;13.35;3.35;;;23.30;99.90;;;;;;5051497;28;20194;-82
2021/07/17 10:21:27;;;;;;;10.40;4.28;;;23.20;99.90;;;;;;5051110;28;20210;-82
2021/07/17 10:23:53;;;;;;;4.82;2.88;;;23.30;99.90;;;;;;5052226;28;20174;-82
2021/07/17 10:26:18;;;;;;;5.40;3.03;;;23.50;99.90;;;;;;5050904;28;20170;-82
2021/07/17 10:28:44;;;;;;;5.85;3.60;;;23.60;99.90;;;;;;5051275;28;20244;-83
2021/07/17 10:31:10;;;;;;;4.43;2.60;;;23.60;99.90;;;;;;5051010;28;20261;-82
2021/07/17 10:33:35;;;;;;;10.05;3.17;;;23.50;99.90;;;;;;5051408;28;20179;-82
2021/07/17 10:38:30;;;;;;;8.27;3.60;;;23.40;99.90;;;;;;5051124;28;20185;-83
2021/07/17 10:40:58;;;;;;;8.18;3.05;;;23.50;99.90;;;;;;5052246;28;20690;-80
2021/07/17 10:43:24;;;;;;;11.95;3.65;;;23.50;99.90;;;;;;5052251;28;20163;-81
2021/07/17 10:45:51;;;;;;;5.93;2.90;;;23.60;99.90;;;;;;5050962;28;20237;-82
2021/07/17 10:48:30;;;;;;;10.38;3.20;;;23.50;99.90;;;;;;5051452;28;20163;-82
2021/07/17 10:51:00;;;;;;;9.57;4.38;;;23.50;99.90;;;;;;5050841;28;20163;-83
2021/07/17 10:53:48;;;;;;;7.32;2.92;;;23.50;99.90;;;;;;5052169;28;20163;-83
2021/07/17 10:56:26;;;;;;;10.82;2.35;;;23.90;99.90;;;;;;5051050;28;20229;-84
2021/07/17 10:59:19;;;;;;;5.88;2.58;;;24.20;99.90;;;;;;5052300;28;20163;-82
2021/07/17 11:02:01;;;;;;;8.57;3.20;;;24.10;99.90;;;;;;5058706;28;20532;-82
2021/07/17 11:04:45;;;;;;;7.80;2.67;;;24.00;99.90;;;;;;5052243;28;20548;-83
2021/07/17 11:07:17;;;;;;;4.50;3.03;;;24.20;99.90;;;;;;5050907;28;20623;-82
2021/07/17 11:09:51;;;;;;;6.00;2.65;;;24.10;99.90;;;;;;5052126;28;20167;-82
2021/07/17 11:12:20;;;;;;;5.82;2.88;;;24.30;99.90;;;;;;5052000;28;20198;-82
2021/07/17 11:14:46;;;;;;;11.00;3.35;;;24.20;99.90;;;;;;5051805;28;20184;-81
2021/07/17 11:17:49;;;;;;;3.33;2.28;;;24.10;99.90;;;;;;5052111;28;20701;-84
2021/07/17 11:20:58;;;;;;;;;;;;;;;;;;;;;
2021/07/17 11:23:34;;;;;;;4.20;2.20;;;24.60;99.90;;;;;;5052210;28;20183;-82
2021/07/17 11:26:10;;;;;;;5.57;2.00;;;24.90;99.90;;;;;;5050963;28;20279;-80
2021/07/17 11:28:47;;;;;;;8.90;2.45;;;24.60;99.90;;;;;;5050765;28;20169;-81
2021/07/17 11:31:28;;;;;;;4.03;1.92;;;24.50;99.90;;;;;;5051636;28;20640;-80
2021/07/17 11:34:13;;;;;;;4.68;2.70;;;24.70;99.90;;;;;;5051995;28;20201;-81
2021/07/17 11:36:44;;;;;;;4.25;2.20;;;24.90;99.90;;;;;;5050403;28;20171;-81
2021/07/17 11:39:13;;;;;;;3.20;2.20;;;24.70;99.90;;;;;;5052817;28;20177;-81
2021/07/17 11:41:40;;;;;;;6.03;2.65;;;24.80;99.90;;;;;;5055475;28;20160;-81
2021/07/17 11:44:06;;;;;;;3.60;2.28;;;24.70;99.90;;;;;;5055142;28;20187;-82
2021/07/17 11:46:33;;;;;;;4.38;2.00;;;24.80;99.90;;;;;;5055341;28;20177;-82
2021/07/17 11:49:02;;;;;;;5.07;2.20;;;24.80;99.90;;;;;;5053902;28;20171;-82
2021/07/17 11:51:28;;;;;;;5.97;2.85;;;24.80;99.90;;;;;;5053711;28;20305;-82
2021/07/17 11:54:01;;;;;;;3.72;2.45;;;24.50;99.90;;;;;;5053966;28;20302;-80
2021/07/17 11:56:27;;;;;;;3.28;2.22;;;24.40;99.90;;;;;;5053868;28;20181;-82
2021/07/17 11:59:13;;;;;;;4.28;2.35;;;24.50;99.90;;;;;;5053880;28;20623;-82
2021/07/17 12:01:39;;;;;;;10.00;2.85;;;24.70;99.90;;;;;;5053626;28;20173;-82
2021/07/17 12:04:05;;;;;;;7.53;2.20;;;24.80;99.90;;;;;;5053784;28;20330;-82
2021/07/17 12:06:32;;;;;;;4.30;2.42;;;24.90;99.90;;;;;;5054073;28;20624;-83
2021/07/17 12:09:10;;;;;;;7.88;2.78;;;25.10;99.90;;;;;;5056310;28;20382;-82
2021/07/17 12:11:38;;;;;;;6.35;2.05;;;25.00;99.90;;;;;;5057263;28;20571;-83
2021/07/17 12:14:20;;;;;;;3.10;1.85;;;25.10;99.90;;;;;;5060799;28;20173;-81
2021/07/17 12:16:46;;;;;;;4.53;2.15;;;25.00;99.90;;;;;;5067736;28;20163;-82
2021/07/17 12:19:17;;;;;;;3.45;2.10;;;25.10;99.90;;;;;;5067799;28;20517;-82
2021/07/17 12:21:43;;;;;;;3.42;1.95;;;25.30;99.90;;;;;;5067637;28;20228;-82
2021/07/17 12:24:08;;;;;;;4.05;1.70;;;25.50;99.90;;;;;;5070764;28;20195;-83
2021/07/17 12:26:34;;;;;;;5.10;2.03;;;25.50;99.90;;;;;;5073376;28;20167;-82
2021/07/17 12:29:00;;;;;;;4.57;1.88;;;25.20;99.90;;;;;;5073432;28;20155;-82
2021/07/17 12:31:25;;;;;;;3.10;1.95;;;25.40;99.90;;;;;;5073207;28;20249;-82
2021/07/17 12:33:51;;;;;;;3.35;1.70;;;25.60;99.90;;;;;;5072658;28;20190;-82
2021/07/17 12:36:18;;;;;;;4.82;2.00;;;25.60;99.90;;;;;;5065678;28;20517;-82
2021/07/17 12:38:57;;;;;;;2.85;1.80;;;25.60;99.90;;;;;;5055064;28;20170;-82
2021/07/17 12:41:24;;;;;;;4.55;1.98;;;25.50;99.90;;;;;;5054784;28;20167;-82
2021/07/17 12:43:55;;;;;;;9.90;1.75;;;25.60;99.90;;;;;;5054973;28;20193;-83